Time;durP1;ratioP1;P1;durP2;ratioP2;P2;SDS_P1;SDS_P2;PMS_P1;PMS_P2;Temp;Humidity;BMP_temperature;BMP_pressure;BME280_temperature;BME280_humidity;BME280_pressure;Samples;Min_cycle;Max_cycle;Signal;HPM_P1;HPM_P2
2023/12/28 00:01:20;;;;;;;9.93;6.22;;;;;;;5.45;49.33;94892.09;5013137;28;20132;-79
2023/12/28 00:03:46;;;;;;;13.60;9.13;;;;;;;5.52;49.42;94900.59;5016202;28;20025;-78
2023/12/28 00:06:11;;;;;;;14.73;10.38;;;;;;;5.55;49.23;94901.91;5012412;28;20609;-79
2023/12/28 00:08:37;;;;;;;19.17;13.00;;;;;;;5.39;49.09;94893.09;5007240;28;20049;-79
2023/12/28 00:11:02;;;;;;;21.58;14.55;;;;;;;5.52;48.90;94905.06;5014192;28;20465;-78
2023/12/28 00:13:28;;;;;;;21.30;13.18;;;;;;;5.43;49.16;94885.50;5014614;28;20537;-77
2023/12/28 00:15:53;;;;;;;17.00;10.15;;;;;;;5.45;48.94;94891.28;5014875;28;20027;-78
2023/12/28 00:18:19;;;;;;;13.88;9.25;;;;;;;5.45;49.15;94892.09;5016925;28;20496;-77
2023/12/28 00:20:44;;;;;;;22.67;11.68;;;;;;;5.43;49.14;94899.44;5005798;28;20039;-78
2023/12/28 00:23:09;;;;;;;12.57;7.97;;;;;;;5.47;49.19;94926.13;5016069;28;20045;-78
2023/12/28 00:25:35;;;;;;;9.05;5.05;;;;;;;5.29;49.41;94908.06;5009994;28;20029;-78
2023/12/28 00:28:00;;;;;;;7.32;5.57;;;;;;;5.23;49.50;94906.44;5014106;28;20079;-78
2023/12/28 00:30:25;;;;;;;8.73;5.30;;;;;;;5.32;49.77;94916.28;5011559;28;20425;-79
2023/12/28 00:32:51;;;;;;;13.77;8.23;;;;;;;5.36;49.52;94919.19;5012399;28;20662;-79
2023/12/28 00:35:16;;;;;;;14.13;8.35;;;;;;;5.24;49.59;94895.63;5014150;28;20072;-78
2023/12/28 00:37:42;;;;;;;9.07;7.25;;;;;;;5.42;49.58;94915.56;5013234;28;20121;-78
2023/12/28 00:40:08;;;;;;;16.88;9.82;;;;;;;5.37;49.47;94913.69;5008621;28;20217;-78
2023/12/28 00:42:33;;;;;;;10.10;7.45;;;;;;;5.34;49.38;94927.34;5012028;28;20029;-78
2023/12/28 00:44:59;;;;;;;13.43;6.88;;;;;;;5.22;49.91;94920.69;5014189;28;20060;-79
2023/12/28 00:47:25;;;;;;;9.30;7.57;;;;;;;4.99;50.12;94906.75;5005870;28;20034;-77
2023/12/28 00:49:50;;;;;;;12.20;9.13;;;;;;;5.17;50.51;94937.25;5007026;28;20037;-79
2023/12/28 00:52:15;;;;;;;15.65;10.02;;;;;;;5.23;50.36;94935.47;5005347;28;20017;-78
2023/12/28 00:54:41;;;;;;;15.60;9.25;;;;;;;5.25;50.17;94943.91;5015576;28;20032;-79
2023/12/28 00:57:06;;;;;;;20.75;11.75;;;;;;;5.23;49.95;94946.00;5014489;28;20057;-79
2023/12/28 00:59:32;;;;;;;16.00;10.23;;;;;;;5.12;49.92;94939.84;5013242;28;20443;-79
2023/12/28 01:01:57;;;;;;;22.15;12.43;;;;;;;5.17;50.17;94933.81;5015128;28;20508;-79
2023/12/28 01:04:25;;;;;;;17.58;12.00;;;;;;;5.18;50.36;94930.16;5015274;28;20026;-78
2023/12/28 01:06:52;;;;;;;32.85;18.60;;;;;;;5.36;50.30;94940.31;5015651;28;20754;-79
2023/12/28 01:09:18;;;;;;;20.98;12.40;;;;;;;5.40;50.35;94938.75;5015568;28;20048;-78
2023/12/28 01:11:44;;;;;;;27.92;13.98;;;;;;;5.33;50.28;94935.53;5015115;28;20509;-78
2023/12/28 01:14:10;;;;;;;39.15;17.70;;;;;;;5.32;50.25;94934.75;5015372;28;20044;-78
2023/12/28 01:16:39;;;;;;;36.85;17.38;;;;;;;5.39;50.11;94939.78;5016122;28;20030;-77
2023/12/28 01:19:05;;;;;;;30.65;15.23;;;;;;;5.36;50.36;94935.03;5014869;28;20584;-78
2023/12/28 01:21:30;;;;;;;14.18;9.13;;;;;;;5.37;50.38;94940.06;5014398;28;20022;-78
2023/12/28 01:23:55;;;;;;;18.90;11.73;;;;;;;5.42;50.30;94942.72;5014370;28;20038;-79
2023/12/28 01:26:23;;;;;;;23.63;13.48;;;;;;;5.33;50.28;94936.34;5012203;28;20167;-78
2023/12/28 01:28:49;;;;;;;27.73;11.50;;;;;;;5.13;50.22;94920.34;5012956;28;21398;-77
2023/12/28 01:31:14;;;;;;;23.67;12.07;;;;;;;5.22;50.50;94939.13;5015055;28;20042;-78
2023/12/28 01:33:40;;;;;;;30.25;14.65;;;;;;;5.23;50.50;94922.28;5015241;28;20028;-78
2023/12/28 01:36:19;;;;;;;29.63;15.63;;;;;;;5.30;50.59;94936.03;5015308;28;20563;-78
2023/12/28 01:38:45;;;;;;;21.77;12.18;;;;;;;5.33;50.18;94925.00;5007680;28;20091;-79
2023/12/28 01:41:15;;;;;;;17.65;9.07;;;;;;;5.34;49.51;94922.06;5014981;28;20879;-78
2023/12/28 01:43:41;;;;;;;17.65;8.80;;;;;;;5.27;49.54;94910.16;5003784;28;20511;-78
2023/12/28 01:46:11;;;;;;;17.67;9.30;;;;;;;5.19;49.74;94890.31;5014311;28;20493;-79
2023/12/28 01:48:36;;;;;;;11.90;8.07;;;;;;;5.33;50.00;94912.59;5031576;28;20025;-79
2023/12/28 01:51:03;;;;;;;10.88;6.60;;;;;;;5.28;50.02;94927.59;5013840;28;20119;-76
2023/12/28 01:53:28;;;;;;;9.52;6.05;;;;;;;5.18;50.06;94912.47;5013345;28;20381;-78
2023/12/28 01:55:54;;;;;;;7.25;5.55;;;;;;;5.13;50.26;94909.81;5015021;28;20116;-78
2023/12/28 01:58:20;;;;;;;8.60;5.20;;;;;;;5.18;49.92;94923.03;5016921;28;20044;-78
2023/12/28 02:00:47;;;;;;;7.22;4.55;;;;;;;5.05;49.82;94903.13;5013400;28;20065;-76
2023/12/28 02:03:12;;;;;;;13.45;6.03;;;;;;;5.13;49.76;94915.06;5015519;28;20036;-78
2023/12/28 02:05:38;;;;;;;8.00;4.93;;;;;;;4.94;50.05;94906.72;5013351;28;20360;-79
2023/12/28 02:08:05;;;;;;;8.32;4.80;;;;;;;4.96;50.52;94925.72;5014458;28;20112;-79
2023/12/28 02:10:30;;;;;;;9.73;6.65;;;;;;;4.94;50.61;94917.28;5013791;28;20067;-79
2023/12/28 02:12:56;;;;;;;9.02;5.90;;;;;;;4.95;50.81;94918.88;5016622;28;20143;-78
2023/12/28 02:15:22;;;;;;;11.55;7.45;;;;;;;4.93;51.09;94920.97;5014368;28;20733;-79
2023/12/28 02:17:58;;;;;;;12.68;8.20;;;;;;;4.86;51.31;94912.47;5013946;28;22599;-78
2023/12/28 02:20:32;;;;;;;15.32;9.30;;;;;;;4.93;51.45;94926.25;5015467;28;20034;-77
2023/12/28 02:22:57;;;;;;;12.52;7.60;;;;;;;4.88;51.37;94912.22;5015800;28;20036;-78
2023/12/28 02:25:23;;;;;;;7.85;5.03;;;;;;;4.89;51.20;94914.63;5014834;28;20411;-78
2023/12/28 02:27:49;;;;;;;9.40;4.60;;;;;;;4.84;51.15;94911.94;5015207;28;20187;-78
2023/12/28 02:30:24;;;;;;;8.48;3.95;;;;;;;4.83;50.99;94910.34;5015417;28;20144;-78
2023/12/28 02:33:08;;;;;;;5.90;4.68;;;;;;;4.79;51.12;94903.97;5017253;28;20194;-78
2023/12/28 02:35:41;;;;;;;9.15;5.28;;;;;;;4.75;51.14;94905.50;5018788;28;20551;-78
2023/12/28 02:38:11;;;;;;;9.90;4.80;;;;;;;4.62;51.15;94905.91;5017149;28;20611;-78
2023/12/28 02:40:43;;;;;;;12.07;6.18;;;;;;;4.63;51.49;94921.50;5034198;28;20029;-79
2023/12/28 02:43:10;;;;;;;15.50;9.20;;;;;;;4.68;51.47;94926.00;5017005;28;20029;-78
2023/12/28 02:45:36;;;;;;;22.83;13.07;;;;;;;4.54;51.76;94907.16;5019285;28;20484;-78
2023/12/28 02:48:03;;;;;;;21.90;14.40;;;;;;;4.54;52.32;94927.44;5016951;28;20032;-79
2023/12/28 02:50:30;;;;;;;21.83;13.70;;;;;;;4.55;52.30;94921.16;5010476;28;20034;-78
2023/12/28 02:52:56;;;;;;;23.08;15.15;;;;;;;4.53;52.44;94910.03;5015861;28;20060;-78
2023/12/28 02:55:21;;;;;;;23.75;14.15;;;;;;;4.49;52.24;94906.31;5018264;28;20158;-78
2023/12/28 02:57:46;;;;;;;15.45;11.07;;;;;;;4.39;52.28;94888.56;5018444;28;20037;-77
2023/12/28 03:00:12;;;;;;;16.08;8.95;;;;;;;4.46;51.92;94896.25;5016552;28;20060;-79
2023/12/28 03:02:38;;;;;;;12.60;7.43;;;;;;;4.55;51.66;94907.97;5017110;28;20080;-78
2023/12/28 03:05:07;;;;;;;10.10;6.00;;;;;;;4.48;51.77;94907.34;5007405;28;20497;-79
2023/12/28 03:07:33;;;;;;;8.70;6.00;;;;;;;4.30;51.94;94873.47;5018880;28;20460;-79
2023/12/28 03:09:59;;;;;;;10.07;6.53;;;;;;;4.35;51.66;94892.75;5015550;28;20029;-78
2023/12/28 03:12:24;;;;;;;11.48;7.32;;;;;;;4.25;51.95;94882.06;5018324;28;20436;-79
2023/12/28 03:14:53;;;;;;;12.00;9.93;;;;;;;4.13;52.35;94874.31;5016684;28;20026;-78
2023/12/28 03:17:18;;;;;;;13.73;9.82;;;;;;;4.12;52.38;94856.91;5016474;28;20041;-78
2023/12/28 03:19:44;;;;;;;16.92;10.43;;;;;;;4.30;52.45;94895.31;5014732;28;20543;-79
2023/12/28 03:22:09;;;;;;;14.73;9.13;;;;;;;4.19;52.44;94883.84;5017153;28;20508;-78
2023/12/28 03:24:37;;;;;;;15.10;9.25;;;;;;;4.12;52.63;94880.59;5015696;28;20025;-79
2023/12/28 03:27:03;;;;;;;16.30;9.95;;;;;;;4.25;52.29;94882.06;5017829;28;20037;-78
2023/12/28 03:29:28;;;;;;;17.48;10.10;;;;;;;4.36;52.18;94898.78;5015395;28;20472;-78
2023/12/28 03:31:54;;;;;;;21.55;12.18;;;;;;;4.22;52.48;94880.72;5016342;28;20044;-78
2023/12/28 03:34:19;;;;;;;19.33;13.75;;;;;;;4.27;52.47;94886.03;5014407;28;20042;-78
2023/12/28 03:36:44;;;;;;;16.60;11.82;;;;;;;4.18;52.74;94882.25;5016464;28;20033;-78
2023/12/28 03:39:10;;;;;;;19.98;12.45;;;;;;;4.03;52.77;94879.44;5017673;28;20065;-78
2023/12/28 03:41:35;;;;;;;21.88;15.40;;;;;;;4.16;52.58;94915.91;5014029;28;20026;-79
2023/12/28 03:44:01;;;;;;;40.47;24.20;;;;;;;4.33;52.42;94920.38;5017079;28;20457;-77
2023/12/28 03:46:26;;;;;;;37.10;23.45;;;;;;;4.07;53.16;94893.72;5015885;28;20251;-78
2023/12/28 03:48:52;;;;;;;38.38;25.15;;;;;;;3.95;53.39;94916.75;5016129;28;20040;-79
2023/12/28 03:51:18;;;;;;;39.67;24.10;;;;;;;3.95;53.33;94916.75;5017182;28;20026;-77
2023/12/28 03:53:44;;;;;;;34.55;23.02;;;;;;;4.05;53.04;94922.13;5015862;28;20171;-78
2023/12/28 03:56:22;;;;;;;26.02;16.05;;;;;;;4.15;52.41;94929.34;5016114;28;20048;-79
2023/12/28 03:58:47;;;;;;;28.05;17.75;;;;;;;3.98;52.79;94921.50;5014290;28;20034;-78
2023/12/28 04:01:12;;;;;;;37.72;22.58;;;;;;;3.72;53.87;94924.88;5014677;28;20029;-78
2023/12/28 04:03:38;;;;;;;35.42;20.83;;;;;;;3.54;54.61;94927.75;5015107;28;20654;-78
2023/12/28 04:06:03;;;;;;;42.65;24.52;;;;;;;3.60;54.91;94922.34;5017790;28;20030;-79
2023/12/28 04:08:29;;;;;;;37.50;23.17;;;;;;;3.74;54.78;94922.78;5011776;28;20045;-78
2023/12/28 04:10:55;;;;;;;53.90;31.65;;;;;;;3.81;54.66;94940.00;5017540;28;20032;-79
2023/12/28 04:13:20;;;;;;;28.50;18.42;;;;;;;3.81;54.13;94918.94;5008407;28;20041;-78
2023/12/28 04:15:46;;;;;;;22.67;15.20;;;;;;;3.64;54.17;94920.00;5018908;28;20021;-79
2023/12/28 04:18:11;;;;;;;23.85;14.80;;;;;;;3.62;53.98;94922.09;5013596;28;20068;-79
2023/12/28 04:20:37;;;;;;;23.92;13.38;;;;;;;3.72;53.96;94932.75;5014815;28;20379;-79
2023/12/28 04:23:02;;;;;;;21.98;13.27;;;;;;;3.53;53.96;94916.44;5015231;28;20053;-78
2023/12/28 04:25:28;;;;;;;28.70;18.40;;;;;;;3.60;54.13;94938.13;5015840;28;20040;-78
2023/12/28 04:27:53;;;;;;;25.00;15.25;;;;;;;3.71;53.80;94939.06;5016172;28;20031;-78
2023/12/28 04:30:18;;;;;;;23.75;14.10;;;;;;;3.49;53.80;94899.53;5016399;28;20505;-77
2023/12/28 04:32:44;;;;;;;20.35;12.45;;;;;;;3.69;53.85;94925.34;5016565;28;20413;-79
2023/12/28 04:35:09;;;;;;;18.20;11.18;;;;;;;3.05;53.57;94825.03;5015505;28;20122;-76
2023/12/28 04:37:36;;;;;;;17.85;11.25;;;;;;;3.71;53.32;94933.78;5017015;28;20049;-79
2023/12/28 04:40:03;;;;;;;15.55;10.70;;;;;;;3.60;53.50;94917.06;5014962;28;20722;-79
2023/12/28 04:42:28;;;;;;;17.55;11.60;;;;;;;3.72;53.66;94930.13;5011468;28;20029;-78
2023/12/28 04:44:54;;;;;;;21.00;10.27;;;;;;;3.63;53.58;94913.94;5012421;28;20033;-78
2023/12/28 04:47:19;;;;;;;19.38;10.88;;;;;;;3.76;53.50;94926.78;5016902;28;20129;-78
2023/12/28 04:49:45;;;;;;;16.63;11.65;;;;;;;3.47;54.17;94906.09;5013909;28;20861;-78
2023/12/28 04:52:11;;;;;;;16.58;10.20;;;;;;;3.55;54.55;94924.88;5015408;28;20486;-78
2023/12/28 04:54:40;;;;;;;16.85;9.60;;;;;;;3.63;54.20;94916.56;5016018;28;20030;-79
2023/12/28 04:57:10;;;;;;;12.40;8.93;;;;;;;3.70;54.00;94913.78;5016411;28;20773;-77
2023/12/28 04:59:45;;;;;;;15.38;8.77;;;;;;;3.69;54.08;94909.53;5015984;28;20029;-78
2023/12/28 05:02:10;;;;;;;14.65;8.50;;;;;;;3.65;54.16;94924.22;5023369;28;20172;-78
2023/12/28 05:04:39;;;;;;;12.77;7.88;;;;;;;3.71;54.33;94915.38;5014816;28;20592;-77
2023/12/28 05:07:04;;;;;;;9.15;6.82;;;;;;;3.78;54.01;94921.25;5014731;28;20029;-79
2023/12/28 05:09:30;;;;;;;10.25;5.97;;;;;;;3.72;53.70;94894.06;5016308;28;20018;-78
2023/12/28 05:11:55;;;;;;;7.85;5.30;;;;;;;3.68;53.39;94881.63;5016482;28;20048;-78
2023/12/28 05:14:20;;;;;;;6.90;5.57;;;;;;;3.93;53.18;94925.91;5012428;28;20691;-79
2023/12/28 05:16:46;;;;;;;9.88;4.88;;;;;;;3.75;53.37;94908.59;5012914;28;20044;-77
2023/12/28 05:19:11;;;;;;;10.15;5.78;;;;;;;3.75;53.42;94906.75;5012949;28;20715;-77
2023/12/28 05:21:36;;;;;;;7.85;4.88;;;;;;;3.82;53.38;94917.06;5016086;28;20032;-78
2023/12/28 05:24:02;;;;;;;6.15;4.90;;;;;;;3.89;53.03;94927.44;5013551;28;20040;-78
2023/12/28 05:26:27;;;;;;;6.70;4.57;;;;;;;3.78;52.94;94905.47;5015430;28;20996;-79
2023/12/28 05:28:53;;;;;;;5.72;4.70;;;;;;;3.74;52.92;94906.97;5014388;28;20049;-79
2023/12/28 05:31:18;;;;;;;23.40;7.38;;;;;;;3.75;52.76;94919.13;5016343;28;20033;-78
2023/12/28 05:33:44;;;;;;;6.80;5.03;;;;;;;3.83;52.65;94930.00;5013889;28;20571;-79
2023/12/28 05:36:09;;;;;;;6.80;5.00;;;;;;;3.78;52.95;94918.63;5015246;28;20080;-77
2023/12/28 05:38:34;;;;;;;5.18;4.68;;;;;;;3.83;52.86;94931.84;5015252;28;20032;-78
2023/12/28 05:41:00;;;;;;;8.05;5.85;;;;;;;3.86;52.54;94939.25;5016292;28;20042;-78
2023/12/28 05:43:26;;;;;;;8.05;6.35;;;;;;;3.85;52.83;94932.41;5015340;28;20405;-79
2023/12/28 05:45:51;;;;;;;7.40;6.07;;;;;;;3.78;52.89;94929.13;5016016;28;20026;-78
2023/12/28 05:48:17;;;;;;;9.48;7.28;;;;;;;3.81;53.12;94939.19;5014421;28;20041;-78
2023/12/28 05:50:42;;;;;;;14.40;9.60;;;;;;;3.58;53.30;94923.59;5014464;28;20492;-79
2023/12/28 05:53:13;;;;;;;13.10;9.02;;;;;;;3.72;53.25;94946.69;5014405;28;20160;-78
2023/12/28 05:55:39;;;;;;;12.30;10.20;;;;;;;3.63;53.31;94934.19;5015296;28;20234;-79
2023/12/28 05:58:04;;;;;;;10.85;8.48;;;;;;;3.71;53.20;94944.31;5015243;28;20037;-78
2023/12/28 06:00:29;;;;;;;14.70;9.38;;;;;;;3.33;53.50;94909.03;5012378;28;20895;-78
2023/12/28 06:02:55;;;;;;;14.05;9.45;;;;;;;3.55;53.28;94939.88;5010374;28;20033;-79
2023/12/28 06:05:20;;;;;;;15.05;9.18;;;;;;;3.63;53.40;94948.16;5008394;28;20139;-78
2023/12/28 06:07:49;;;;;;;15.68;9.13;;;;;;;3.62;53.29;94961.56;5015081;28;20151;-77
2023/12/28 06:10:14;;;;;;;14.57;9.27;;;;;;;3.45;53.46;94939.72;5017745;28;20029;-78
2023/12/28 06:12:40;;;;;;;13.15;8.80;;;;;;;3.47;53.65;94958.72;5015233;28;20028;-78
2023/12/28 06:15:06;;;;;;;11.73;8.80;;;;;;;3.56;53.64;94955.44;5019624;28;20034;-77
2023/12/28 06:17:31;;;;;;;17.38;10.82;;;;;;;3.47;53.46;94937.66;5018598;28;20695;-78
2023/12/28 06:19:57;;;;;;;18.00;10.95;;;;;;;3.49;53.56;94953.97;5018983;28;20036;-77
2023/12/28 06:22:25;;;;;;;13.32;9.68;;;;;;;3.44;53.89;94964.44;5016480;28;20057;-78
2023/12/28 06:24:50;;;;;;;14.18;10.10;;;;;;;3.52;53.62;94964.03;5018594;28;20032;-79
2023/12/28 06:27:16;;;;;;;13.80;9.85;;;;;;;3.33;54.01;94953.75;5018566;28;20029;-79
2023/12/28 06:29:44;;;;;;;13.05;9.02;;;;;;;3.35;54.38;94962.22;5018232;28;20575;-78
2023/12/28 06:32:10;;;;;;;13.57;8.63;;;;;;;3.33;54.45;94959.00;5015113;28;20037;-78
2023/12/28 06:34:35;;;;;;;12.93;9.57;;;;;;;3.44;54.40;94964.44;5020386;28;20049;-79
2023/12/28 06:51:34;;;;;;;15.65;12.68;;;;;;;4.12;53.07;94961.44;5063862;27;20447;-77
2023/12/28 06:53:59;;;;;;;27.60;18.42;;;;;;;4.07;53.38;94964.78;5096121;27;20039;-76
2023/12/28 06:56:25;;;;;;;23.70;16.23;;;;;;;4.08;53.93;94970.84;5097787;28;20405;-76
2023/12/28 06:58:51;;;;;;;25.98;17.08;;;;;;;3.84;53.82;94933.44;5097823;27;20039;-76
2023/12/28 07:01:16;;;;;;;62.90;34.75;;;;;;;4.07;54.25;94972.69;5085540;28;20031;-76
2023/12/28 07:03:42;;;;;;;40.53;25.95;;;;;;;3.97;54.31;94953.31;5097613;28;20060;-76
2023/12/28 07:06:08;;;;;;;42.00;27.65;;;;;;;4.10;54.27;94968.78;5107269;27;20062;-77
2023/12/28 07:08:34;;;;;;;32.17;21.65;;;;;;;4.13;54.07;94963.03;5092849;28;20044;-76
2023/12/28 07:10:59;;;;;;;33.58;21.75;;;;;;;4.12;54.46;94972.75;5095145;28;20522;-76
2023/12/28 07:13:25;;;;;;;35.28;23.38;;;;;;;3.39;58.13;94983.56;5091150;28;20041;-76
2023/12/28 07:15:51;;;;;;;34.00;24.08;;;;;;;3.74;56.85;94983.28;5091632;28;20087;-77
2023/12/28 07:18:16;;;;;;;37.17;25.95;;;;;;;3.95;56.68;94981.75;5090661;28;20091;-76
2023/12/28 07:20:42;;;;;;;45.25;32.90;;;;;;;3.67;57.40;94970.28;5092532;28;20024;-76
2023/12/28 07:23:08;;;;;;;43.50;31.63;;;;;;;3.88;57.33;94976.66;5093020;28;20422;-77
2023/12/28 07:25:34;;;;;;;42.85;31.70;;;;;;;3.46;58.87;94975.50;5093759;28;20032;-76
2023/12/28 07:27:59;;;;;;;45.30;30.90;;;;;;;3.85;57.78;94969.25;5099724;28;20095;-76
2023/12/28 07:30:25;;;;;;;42.40;30.08;;;;;;;3.88;57.43;94968.75;5094348;27;20076;-77
2023/12/28 07:32:50;;;;;;;49.22;33.38;;;;;;;4.00;57.25;94979.97;5096454;28;20043;-77
2023/12/28 07:35:17;;;;;;;44.22;31.20;;;;;;;4.10;57.36;94974.84;4998251;28;20105;-76
2023/12/28 07:37:44;;;;;;;51.10;31.90;;;;;;;4.12;56.77;94964.84;5008107;28;20034;-77
2023/12/28 07:40:12;;;;;;;50.90;32.65;;;;;;;4.50;56.19;94985.09;5008320;28;20030;-76
2023/12/28 07:42:37;;;;;;;45.08;30.83;;;;;;;4.32;56.29;94959.06;5109470;28;20042;-76
2023/12/28 07:45:03;;;;;;;45.15;29.58;;;;;;;4.42;56.34;94971.56;5118360;27;20599;-76
2023/12/28 07:47:29;;;;;;;45.47;31.58;;;;;;;4.52;56.10;94977.75;5117735;28;20050;-77
2023/12/28 07:49:54;;;;;;;45.15;32.38;;;;;;;4.67;55.82;94977.13;5118003;27;20035;-76
2023/12/28 07:52:20;;;;;;;45.85;30.15;;;;;;;4.76;55.28;94972.19;5101502;28;20151;-76
2023/12/28 07:54:45;;;;;;;47.25;32.30;;;;;;;4.56;55.62;94956.97;5101243;28;20603;-77
2023/12/28 07:57:10;;;;;;;44.83;29.67;;;;;;;4.78;55.65;94986.72;5108354;28;20043;-76
2023/12/28 07:59:36;;;;;;;42.47;29.73;;;;;;;4.24;56.21;94960.28;5106249;28;20016;-76
2023/12/28 08:02:01;;;;;;;42.25;28.13;;;;;;;4.56;56.31;94975.41;5109568;28;20061;-77
2023/12/28 08:04:27;;;;;;;42.65;28.92;;;;;;;4.35;56.43;94973.59;5107505;28;20031;-77
2023/12/28 08:06:52;;;;;;;44.10;29.58;;;;;;;4.74;56.28;94996.19;5107614;28;20028;-77
2023/12/28 08:09:17;;;;;;;41.72;28.83;;;;;;;4.58;56.32;94976.75;5107098;28;20031;-76
2023/12/28 08:11:43;;;;;;;41.00;25.92;;;;;;;4.97;55.73;94985.34;5109286;28;20019;-77
2023/12/28 08:14:08;;;;;;;46.92;27.25;;;;;;;4.73;55.72;94936.59;5106073;28;20601;-77
2023/12/28 08:16:34;;;;;;;42.05;26.95;;;;;;;5.06;55.17;94946.91;5107858;28;20093;-76
2023/12/28 08:19:00;;;;;;;46.25;29.40;;;;;;;4.65;56.21;94977.34;5106910;28;20360;-77
2023/12/28 08:21:26;;;;;;;51.47;28.90;;;;;;;4.55;56.53;94950.91;5106760;28;20133;-76
2023/12/28 08:23:52;;;;;;;41.67;28.05;;;;;;;4.99;56.33;94975.31;5109387;28;20029;-76
2023/12/28 08:26:17;;;;;;;41.42;26.92;;;;;;;5.21;55.45;94966.56;5106543;28;20494;-77
2023/12/28 08:28:43;;;;;;;39.40;26.70;;;;;;;5.34;54.93;94969.56;5106903;28;20037;-76
2023/12/28 08:31:09;;;;;;;36.55;22.27;;;;;;;5.06;54.53;94949.56;5105016;28;20044;-77
2023/12/28 08:33:35;;;;;;;37.22;23.83;;;;;;;5.46;54.36;94970.19;5104616;28;20032;-77
2023/12/28 08:36:03;;;;;;;46.45;25.27;;;;;;;5.44;53.89;94948.53;5108043;28;20024;-77
2023/12/28 08:38:29;;;;;;;49.30;24.45;;;;;;;5.48;54.33;94956.75;5104266;28;21110;-77
2023/12/28 08:40:54;;;;;;;44.30;25.83;;;;;;;5.87;53.88;94968.59;5106565;28;20027;-77
2023/12/28 08:43:20;;;;;;;45.72;26.13;;;;;;;5.36;54.71;94950.84;5104794;28;20492;-76
2023/12/28 08:45:45;;;;;;;42.15;28.48;;;;;;;5.37;55.41;94970.91;5108228;28;20069;-76
2023/12/28 08:48:10;;;;;;;43.13;27.27;;;;;;;5.49;55.05;94960.97;5110790;27;20027;-77
2023/12/28 08:50:36;;;;;;;43.28;27.20;;;;;;;5.23;55.77;94951.28;5104273;28;20612;-76
2023/12/28 08:53:01;;;;;;;42.50;27.20;;;;;;;5.47;54.75;94932.22;5103537;27;20126;-76
2023/12/28 08:55:27;;;;;;;45.08;28.73;;;;;;;5.67;54.49;94946.59;5104845;28;20044;-77
2023/12/28 08:57:53;;;;;;;38.42;26.45;;;;;;;5.77;54.02;94931.63;5105082;27;20039;-77
2023/12/28 09:00:19;;;;;;;39.78;29.45;;;;;;;5.22;55.74;94933.88;5106019;28;20952;-76
2023/12/28 09:02:44;;;;;;;44.83;27.88;;;;;;;5.64;55.27;94942.59;5104950;28;20026;-77
2023/12/28 09:05:10;;;;;;;41.92;26.98;;;;;;;5.80;54.03;94915.25;5103924;28;20504;-76
2023/12/28 09:07:38;;;;;;;45.33;27.10;;;;;;;6.13;53.26;94929.94;5104331;28;20633;-77
2023/12/28 09:10:04;;;;;;;38.40;26.13;;;;;;;6.11;53.41;94931.25;5103080;28;20522;-77
2023/12/28 09:12:30;;;;;;;45.28;28.65;;;;;;;6.32;53.14;94931.09;5102271;28;20070;-76
2023/12/28 09:14:55;;;;;;;43.10;29.08;;;;;;;5.34;55.18;94927.34;5107828;28;20031;-76
2023/12/28 09:17:24;;;;;;;46.83;30.08;;;;;;;5.21;55.92;94927.78;5106783;28;20046;-77
2023/12/28 09:19:49;;;;;;;39.63;28.77;;;;;;;5.26;55.91;94898.03;5106718;28;20028;-76
2023/12/28 09:22:15;;;;;;;45.70;29.13;;;;;;;5.94;54.76;94921.66;5102314;28;20053;-77
2023/12/28 09:24:40;;;;;;;42.88;29.45;;;;;;;6.16;53.91;94924.19;5104512;28;20028;-77
2023/12/28 09:27:05;;;;;;;47.63;32.05;;;;;;;5.71;54.67;94894.88;5105856;28;20040;-76
2023/12/28 09:29:31;;;;;;;51.65;28.58;;;;;;;5.76;55.04;94908.91;5106101;28;20024;-77
2023/12/28 09:31:56;;;;;;;44.45;28.20;;;;;;;5.97;54.07;94886.81;5102953;28;20495;-77
2023/12/28 09:34:22;;;;;;;44.97;28.83;;;;;;;5.92;53.84;94886.00;5106549;28;20092;-76
2023/12/28 09:36:47;;;;;;;47.33;29.92;;;;;;;5.75;54.34;94862.44;5102688;28;21074;-76
2023/12/28 09:39:13;;;;;;;48.17;28.77;;;;;;;6.18;53.50;94889.56;5106065;28;20047;-76
2023/12/28 09:41:43;;;;;;;45.80;27.00;;;;;;;6.28;53.88;94894.88;5104929;28;20032;-76
2023/12/28 09:44:12;;;;;;;40.10;26.83;;;;;;;6.39;53.33;94892.03;5105426;28;20764;-76
2023/12/28 09:46:41;;;;;;;39.70;28.10;;;;;;;6.61;52.91;94877.78;5108645;28;20103;-76
2023/12/28 09:49:07;;;;;;;44.63;27.85;;;;;;;6.60;52.56;94876.22;5103253;27;20119;-76
2023/12/28 09:51:32;;;;;;;38.92;26.15;;;;;;;6.70;52.88;94866.41;5102125;28;20071;-76
2023/12/28 09:53:58;;;;;;;40.17;25.92;;;;;;;7.05;52.54;94856.91;5099885;28;20044;-77
2023/12/28 09:56:24;;;;;;;38.47;25.42;;;;;;;7.23;51.04;94835.22;5106594;28;20035;-76
2023/12/28 09:58:50;;;;;;;35.40;23.27;;;;;;;7.34;50.84;94850.00;5103565;28;20537;-76
2023/12/28 10:01:17;;;;;;;41.90;23.85;;;;;;;7.51;51.07;94863.75;5099372;28;20055;-77
2023/12/28 10:03:42;;;;;;;40.72;22.55;;;;;;;7.66;50.60;94852.34;5098981;28;20044;-76
2023/12/28 10:06:08;;;;;;;34.67;22.45;;;;;;;7.43;51.15;94843.13;5100126;28;20044;-77
2023/12/28 10:08:33;;;;;;;33.25;22.40;;;;;;;7.20;51.51;94827.81;5094416;28;20123;-77
2023/12/28 10:11:00;;;;;;;34.35;23.40;;;;;;;7.34;51.74;94828.84;5097518;28;20114;-77
2023/12/28 10:13:27;;;;;;;33.83;22.50;;;;;;;7.54;51.26;94812.13;5099956;28;20127;-76
2023/12/28 10:15:52;;;;;;;32.15;21.92;;;;;;;7.78;50.29;94812.34;5098919;28;20551;-77
2023/12/28 10:18:19;;;;;;;37.42;22.10;;;;;;;7.25;51.14;94810.06;5099762;28;20043;-76
2023/12/28 10:20:54;;;;;;;36.35;22.05;;;;;;;7.31;51.25;94821.44;5098856;27;20031;-77
2023/12/28 10:23:21;;;;;;;36.55;21.23;;;;;;;6.63;52.98;94812.22;5095770;28;20564;-77
2023/12/28 10:25:48;;;;;;;30.20;20.75;;;;;;;7.11;52.01;94821.47;5094068;28;20088;-76
2023/12/28 10:28:14;;;;;;;27.70;19.63;;;;;;;7.22;51.48;94799.25;5092260;28;20043;-77
2023/12/28 10:30:42;;;;;;;28.60;21.45;;;;;;;7.20;51.55;94817.22;5092549;28;20591;-77
2023/12/28 10:33:08;;;;;;;30.42;20.83;;;;;;;6.73;52.49;94802.47;5095405;28;20447;-76
2023/12/28 10:35:33;;;;;;;27.80;19.10;;;;;;;7.03;52.38;94779.69;5094304;28;20028;-77
2023/12/28 10:38:00;;;;;;;38.90;20.92;;;;;;;6.87;51.79;94778.91;5096906;28;20024;-77
2023/12/28 10:40:27;;;;;;;36.95;18.15;;;;;;;6.88;52.21;94771.78;5096468;28;20615;-77
2023/12/28 10:42:57;;;;;;;37.05;19.83;;;;;;;6.96;52.07;94779.16;5095666;28;20535;-77
2023/12/28 10:45:25;;;;;;;31.23;18.98;;;;;;;7.02;51.71;94763.03;5097279;28;20031;-76
2023/12/28 10:48:10;;;;;;;30.67;17.75;;;;;;;7.39;51.23;94769.81;5098879;28;20031;-77
2023/12/28 10:50:49;;;;;;;36.13;21.25;;;;;;;7.69;50.28;94751.97;5097638;28;20044;-77
2023/12/28 10:53:39;;;;;;;41.15;23.25;;;;;;;7.21;50.65;94747.38;5106694;28;20170;-76
2023/12/28 10:56:07;;;;;;;35.58;24.02;;;;;;;7.22;51.08;94762.19;5099848;28;20032;-77
2023/12/28 10:59:10;;;;;;;40.08;25.40;;;;;;;7.19;51.20;94757.44;5099589;28;20072;-77
2023/12/28 11:01:39;;;;;;;35.92;23.90;;;;;;;7.30;51.15;94740.47;5099485;28;20039;-77
2023/12/28 11:04:22;;;;;;;38.15;24.38;;;;;;;7.75;50.57;94749.31;5102312;28;20444;-77
2023/12/28 11:06:49;;;;;;;36.85;25.77;;;;;;;7.99;50.04;94729.06;5098267;28;20040;-77
2023/12/28 11:09:18;;;;;;;38.22;27.35;;;;;;;8.28;48.93;94743.19;5101565;28;20462;-77
2023/12/28 11:11:43;;;;;;;43.17;24.25;;;;;;;8.25;48.75;94714.59;5103188;28;20043;-77
2023/12/28 11:14:10;;;;;;;39.00;25.75;;;;;;;8.40;48.59;94725.09;5110442;28;20077;-77
2023/12/28 11:16:37;;;;;;;37.10;26.48;;;;;;;7.71;50.37;94731.31;5108760;28;20055;-77
2023/12/28 11:19:04;;;;;;;47.33;27.90;;;;;;;8.03;50.11;94714.19;5105264;28;20150;-77
2023/12/28 11:21:30;;;;;;;42.13;27.38;;;;;;;8.22;49.28;94707.19;5106345;28;20042;-77
2023/12/28 11:23:55;;;;;;;42.35;28.55;;;;;;;8.31;49.62;94718.00;5105791;28;20051;-77
2023/12/28 11:26:22;;;;;;;40.22;26.83;;;;;;;8.12;49.64;94705.41;5111106;28;20483;-77
2023/12/28 11:28:48;;;;;;;38.45;26.17;;;;;;;8.56;48.80;94702.66;5115328;27;20020;-77
2023/12/28 11:31:15;;;;;;;38.58;27.30;;;;;;;8.41;49.25;94678.94;5111612;28;20051;-76
2023/12/28 11:33:53;;;;;;;41.03;26.38;;;;;;;8.34;49.00;94699.69;5115990;28;20123;-76
2023/12/28 11:36:28;;;;;;;44.72;27.88;;;;;;;8.38;49.50;94695.41;5106788;28;20166;-77
2023/12/28 11:39:01;;;;;;;43.08;26.88;;;;;;;8.24;49.83;94694.47;5115868;28;20044;-77
2023/12/28 11:41:30;;;;;;;45.65;26.25;;;;;;;8.57;49.57;94682.25;5122017;27;20015;-77